createdAt,value
2023-04-04T00:01:07.566Z,1.00
2023-04-04T00:03:36.106Z,1.00
2023-04-04T00:06:04.545Z,1.00
2023-04-04T00:08:32.920Z,1.00
2023-04-04T00:11:07.149Z,1.00
2023-04-04T00:13:35.889Z,1.00
2023-04-04T00:16:04.296Z,1.00
2023-04-04T00:18:33.475Z,1.00
2023-04-04T00:21:02.208Z,1.00
2023-04-04T00:23:30.776Z,1.00
2023-04-04T00:25:59.207Z,1.00
2023-04-04T00:28:27.594Z,1.00
2023-04-04T00:30:56.541Z,1.00
2023-04-04T00:33:25.051Z,1.00
2023-04-04T00:35:53.923Z,1.00
2023-04-04T00:38:22.437Z,1.00
2023-04-04T00:40:52.639Z,1.00
2023-04-04T00:43:21.116Z,1.00
2023-04-04T00:45:50.366Z,1.00
2023-04-04T00:48:19.352Z,1.00
2023-04-04T00:50:47.846Z,1.00
2023-04-04T00:53:16.236Z,1.00
2023-04-04T00:55:44.753Z,1.00
2023-04-04T00:58:13.775Z,1.00
2023-04-04T01:00:42.686Z,1.00
2023-04-04T01:03:13.566Z,1.00
2023-04-04T01:05:42.597Z,1.00
2023-04-04T01:08:11.225Z,1.00
2023-04-04T01:10:41.597Z,1.00
2023-04-04T01:13:10.613Z,1.00
2023-04-04T01:15:39.188Z,1.00
2023-04-04T01:18:08.634Z,1.00
2023-04-04T01:20:43.422Z,1.00
2023-04-04T01:23:13.602Z,1.00
2023-04-04T01:25:42.397Z,1.00
2023-04-04T01:28:10.816Z,1.00
2023-04-04T01:30:42.039Z,1.00
2023-04-04T01:33:28.739Z,1.00
2023-04-04T01:36:23.898Z,1.00
2023-04-04T01:39:11.615Z,1.00
2023-04-04T01:41:41.822Z,1.00
2023-04-04T01:44:11.345Z,1.00
2023-04-04T01:46:39.697Z,1.00
2023-04-04T01:49:08.997Z,1.00
2023-04-04T01:51:39.606Z,1.00
2023-04-04T01:54:08.640Z,1.00
2023-04-04T01:56:37.020Z,1.00
2023-04-04T01:59:05.414Z,1.00
2023-04-04T02:01:34.172Z,1.00
2023-04-04T02:04:03.325Z,1.00
2023-04-04T02:06:31.727Z,1.00
2023-04-04T02:09:00.645Z,1.00
2023-04-04T02:11:29.024Z,1.00
2023-04-04T02:13:58.048Z,1.00
2023-04-04T02:16:26.671Z,1.00
2023-04-04T02:18:55.094Z,1.00
2023-04-04T02:21:23.559Z,1.00
2023-04-04T02:23:52.028Z,1.00
2023-04-04T02:26:20.407Z,1.00
2023-04-04T02:28:48.774Z,1.00
2023-04-04T02:31:17.646Z,1.00
2023-04-04T02:33:46.165Z,1.00
2023-04-04T02:36:14.649Z,1.00
2023-04-04T02:38:43.070Z,1.00
2023-04-04T02:41:11.455Z,1.00
2023-04-04T02:43:39.872Z,1.00
2023-04-04T02:46:20.431Z,1.00
2023-04-04T02:48:49.444Z,1.00
2023-04-04T02:51:17.964Z,1.00
2023-04-04T02:53:47.723Z,1.00
2023-04-04T02:56:16.098Z,1.00
2023-04-04T02:58:44.571Z,1.00
2023-04-04T03:01:13.213Z,1.00
2023-04-04T03:03:41.826Z,1.00
2023-04-04T03:06:10.365Z,1.00
2023-04-04T03:08:38.774Z,1.00
2023-04-04T03:11:07.264Z,1.00
2023-04-04T03:13:35.717Z,1.00
2023-04-04T03:16:07.535Z,1.00
2023-04-04T03:18:36.286Z,1.00
2023-04-04T03:21:04.723Z,1.00
2023-04-04T03:23:33.538Z,1.00
2023-04-04T03:26:03.013Z,1.00
2023-04-04T03:28:32.150Z,1.00
2023-04-04T03:31:10.152Z,1.00
2023-04-04T03:33:39.502Z,1.00
2023-04-04T03:36:15.349Z,1.00
2023-04-04T03:38:44.907Z,1.00
2023-04-04T03:41:14.221Z,1.00
2023-04-04T03:43:43.517Z,1.00
2023-04-04T03:46:12.774Z,1.00
2023-04-04T03:48:42.399Z,1.00
2023-04-04T03:51:12.741Z,1.00
2023-04-04T03:53:42.271Z,1.00
2023-04-04T03:56:12.723Z,1.00
2023-04-04T03:58:42.330Z,1.00
2023-04-04T04:01:11.847Z,1.00
2023-04-04T04:03:40.571Z,1.00
2023-04-04T04:06:09.626Z,1.00
2023-04-04T04:08:38.718Z,1.00
2023-04-04T04:11:09.411Z,1.00
2023-04-04T04:13:39.975Z,1.00
2023-04-04T04:16:09.725Z,1.00
2023-04-04T04:18:39.072Z,1.00
2023-04-04T04:21:07.843Z,1.00
2023-04-04T04:23:36.503Z,1.00
2023-04-04T04:26:06.185Z,1.00
2023-04-04T04:28:34.845Z,1.00
2023-04-04T04:31:08.395Z,1.00
2023-04-04T04:33:38.039Z,1.00
2023-04-04T04:36:07.933Z,1.00
2023-04-04T04:38:36.470Z,1.00
2023-04-04T04:41:05.192Z,1.00
2023-04-04T04:43:33.891Z,1.00
2023-04-04T04:46:02.832Z,1.00
2023-04-04T04:48:32.032Z,1.00
2023-04-04T04:51:00.496Z,1.00
2023-04-04T04:53:28.981Z,1.00
2023-04-04T04:55:57.431Z,1.00
2023-04-04T04:58:27.550Z,1.00
2023-04-04T05:00:58.670Z,1.00
2023-04-04T05:03:27.276Z,1.00
2023-04-04T05:05:55.673Z,1.00
2023-04-04T05:08:24.114Z,1.00
2023-04-04T05:10:53.732Z,1.00
2023-04-04T05:13:22.197Z,1.00
2023-04-04T05:15:50.730Z,1.00
2023-04-04T05:18:19.235Z,1.00
2023-04-04T05:20:53.775Z,1.00
2023-04-04T05:23:22.594Z,1.00
2023-04-04T05:25:54.242Z,1.00
2023-04-04T05:28:25.200Z,1.00
2023-04-04T05:30:55.566Z,1.00
2023-04-04T05:33:24.579Z,1.00
2023-04-04T05:35:53.083Z,1.00
2023-04-04T05:38:22.115Z,1.00
2023-04-04T05:40:50.492Z,1.00
2023-04-04T05:43:18.957Z,1.00
2023-04-04T05:45:47.368Z,1.00
2023-04-04T05:48:16.354Z,1.00
2023-04-04T05:50:48.044Z,1.00
2023-04-04T05:53:16.887Z,1.00
2023-04-04T05:55:45.358Z,1.00
2023-04-04T05:58:13.839Z,1.00
2023-04-04T06:00:42.576Z,1.00
2023-04-04T06:03:11.471Z,1.00
2023-04-04T06:05:40.030Z,1.00
2023-04-04T06:08:08.466Z,1.00
2023-04-04T06:10:37.490Z,1.00
2023-04-04T06:13:06.239Z,1.00
2023-04-04T06:15:34.625Z,1.00
2023-04-04T06:18:03.129Z,1.00
2023-04-04T06:20:31.657Z,1.00
2023-04-04T06:23:02.943Z,1.00
2023-04-04T06:25:32.288Z,1.00
2023-04-04T06:28:00.689Z,1.00
2023-04-04T06:30:29.220Z,1.00
2023-04-04T06:32:58.726Z,1.00
2023-04-04T06:35:27.123Z,1.00
2023-04-04T06:37:58.768Z,1.00
2023-04-04T06:40:27.487Z,1.00
2023-04-04T06:43:02.664Z,1.00
2023-04-04T06:45:34.150Z,1.00
2023-04-04T06:48:03.286Z,1.00
2023-04-04T06:50:35.386Z,1.00
2023-04-04T06:53:04.403Z,1.00
2023-04-04T06:55:33.786Z,1.00
2023-04-04T06:58:02.896Z,1.00
2023-04-04T07:00:31.355Z,1.00
2023-04-04T07:03:00.806Z,1.00
2023-04-04T07:05:29.358Z,1.00
2023-04-04T07:07:57.944Z,1.00
2023-04-04T07:10:27.051Z,1.00
2023-04-04T07:12:55.489Z,1.00
2023-04-04T07:15:23.988Z,1.00
2023-04-04T07:17:52.424Z,1.00
2023-04-04T07:20:20.915Z,1.00
2023-04-04T07:22:50.539Z,1.00
2023-04-04T07:25:19.075Z,1.00
2023-04-04T07:27:47.702Z,1.00
2023-04-04T07:30:16.526Z,1.00
2023-04-04T07:32:45.423Z,1.00
2023-04-04T07:35:13.847Z,1.00
2023-04-04T07:37:42.544Z,1.00
2023-04-04T07:40:11.534Z,1.00
2023-04-04T07:42:46.427Z,1.00
2023-04-04T07:45:15.513Z,1.00
2023-04-04T07:47:48.009Z,1.00
2023-04-04T07:50:17.514Z,1.00
2023-04-04T07:52:55.314Z,1.00
2023-04-04T07:55:26.015Z,1.00
2023-04-04T07:57:55.435Z,1.00
2023-04-04T08:00:26.742Z,1.00
2023-04-04T08:02:57.073Z,1.00
2023-04-04T08:05:25.704Z,1.00
2023-04-04T08:07:54.106Z,1.00
2023-04-04T08:10:22.730Z,1.00
2023-04-04T08:12:51.238Z,1.00
2023-04-04T08:15:19.730Z,1.00
2023-04-04T08:17:48.394Z,1.00
2023-04-04T08:20:17.138Z,4.80
2023-04-04T08:22:45.652Z,17.60
2023-04-04T08:25:14.351Z,46.20
2023-04-04T08:27:44.850Z,71.10
2023-04-04T08:30:15.139Z,91.20
2023-04-04T08:32:46.470Z,94.00
2023-04-04T08:35:15.286Z,96.80
2023-04-04T08:37:47.633Z,99.90
2023-04-04T08:40:16.775Z,99.90
2023-04-04T08:42:46.981Z,99.90
2023-04-04T08:45:20.160Z,99.90
2023-04-04T08:47:54.189Z,99.90
2023-04-04T08:50:23.699Z,99.90
2023-04-04T08:52:53.694Z,99.90
2023-04-04T08:55:22.436Z,99.90
2023-04-04T08:57:50.923Z,99.90
2023-04-04T09:00:22.194Z,99.90
2023-04-04T09:03:10.987Z,99.90
2023-04-04T09:05:39.742Z,99.90
2023-04-04T09:08:08.346Z,99.90
2023-04-04T09:10:38.525Z,99.90
2023-04-04T09:13:15.543Z,99.90
2023-04-04T09:15:48.966Z,99.90
2023-04-04T09:18:18.813Z,99.90
2023-04-04T09:20:48.471Z,99.90
2023-04-04T09:23:19.300Z,99.90
2023-04-04T09:28:28.966Z,99.90
2023-04-04T09:30:57.375Z,99.90
2023-04-04T09:33:26.833Z,99.90
2023-04-04T09:36:11.174Z,99.90
2023-04-04T09:38:45.028Z,99.90
2023-04-04T09:41:17.494Z,99.90
2023-04-04T09:43:46.865Z,99.90
2023-04-04T09:46:16.566Z,99.90
2023-04-04T09:48:51.900Z,99.90
2023-04-04T09:51:20.461Z,99.90
2023-04-04T09:53:52.794Z,99.90
2023-04-04T09:56:21.852Z,99.90
2023-04-04T09:59:02.603Z,99.90
2023-04-04T10:01:32.353Z,99.90
2023-04-04T10:04:00.902Z,99.90
2023-04-04T10:06:30.772Z,99.90
2023-04-04T10:09:01.925Z,99.90
2023-04-04T10:11:34.204Z,99.90
2023-04-04T10:14:07.583Z,99.90
2023-04-04T10:16:39.199Z,99.90
2023-04-04T10:19:08.640Z,99.90
2023-04-04T10:21:37.571Z,99.90
2023-04-04T10:24:10.839Z,99.90
2023-04-04T10:26:39.321Z,99.90
2023-04-04T10:29:07.759Z,99.90
2023-04-04T10:31:41.868Z,99.90
2023-04-04T10:34:21.719Z,99.90
2023-04-04T10:37:04.145Z,99.90
2023-04-04T10:39:39.688Z,99.90
2023-04-04T10:42:08.751Z,99.90
2023-04-04T10:44:41.387Z,99.90
2023-04-04T10:47:18.028Z,99.90
2023-04-04T10:49:47.707Z,99.90
2023-04-04T10:52:21.695Z,99.90
2023-04-04T10:54:57.960Z,99.90
2023-04-04T10:57:29.099Z,99.90
2023-04-04T11:00:10.732Z,99.90
2023-04-04T11:02:46.607Z,99.90
2023-04-04T11:05:41.583Z,99.90
2023-04-04T11:08:14.763Z,99.90
2023-04-04T11:10:48.689Z,99.90
2023-04-04T11:13:24.556Z,99.90
2023-04-04T11:16:08.299Z,99.90
2023-04-04T11:18:42.870Z,99.90
2023-04-04T11:21:25.473Z,99.90
2023-04-04T11:23:54.025Z,99.90
2023-04-04T11:26:31.370Z,99.90
2023-04-04T11:29:01.564Z,99.90
2023-04-04T11:31:33.304Z,99.90
2023-04-04T11:34:06.745Z,99.90
2023-04-04T11:36:37.954Z,99.90
2023-04-04T11:39:07.741Z,99.90
2023-04-04T11:42:06.517Z,99.90
2023-04-04T11:44:42.343Z,99.90
2023-04-04T11:47:12.408Z,99.90
2023-04-04T11:49:44.771Z,99.90
2023-04-04T11:52:17.228Z,99.90
2023-04-04T11:54:47.393Z,99.90
2023-04-04T11:57:17.641Z,99.90
2023-04-04T11:59:48.324Z,99.90
2023-04-04T12:02:32.613Z,99.90
2023-04-04T12:05:01.470Z,99.90
2023-04-04T12:07:33.019Z,99.90
2023-04-04T12:10:01.556Z,99.90
2023-04-04T12:12:30.013Z,99.90
2023-04-04T12:15:06.639Z,99.90
2023-04-04T12:17:43.059Z,99.90
2023-04-04T12:20:12.406Z,99.90
2023-04-04T12:22:41.412Z,99.90
2023-04-04T12:25:10.918Z,99.90
2023-04-04T12:27:39.480Z,99.90
2023-04-04T12:30:16.091Z,99.90
2023-04-04T12:32:49.153Z,99.90
2023-04-04T12:35:19.523Z,99.90
2023-04-04T12:38:11.568Z,99.90
2023-04-04T12:40:40.801Z,99.90
2023-04-04T12:43:10.436Z,99.90
2023-04-04T12:45:41.004Z,99.90
2023-04-04T12:48:18.711Z,99.90
2023-04-04T12:51:01.324Z,99.90
2023-04-04T12:53:30.921Z,99.90
2023-04-04T12:56:05.523Z,99.90
2023-04-04T12:58:35.863Z,99.90
2023-04-04T13:01:05.751Z,99.90
2023-04-04T13:03:35.773Z,99.90
2023-04-04T13:06:04.486Z,99.90
2023-04-04T13:08:33.104Z,99.90
2023-04-04T13:11:07.800Z,99.90
2023-04-04T13:13:41.520Z,99.90
2023-04-04T13:16:34.124Z,99.90
2023-04-04T13:19:03.323Z,99.90
2023-04-04T13:21:32.103Z,99.90
2023-04-04T13:24:02.973Z,99.90
2023-04-04T13:26:31.410Z,99.90
2023-04-04T13:28:59.840Z,99.90
2023-04-04T13:31:28.295Z,99.90
2023-04-04T13:33:56.869Z,99.90
2023-04-04T13:36:25.340Z,99.90
2023-04-04T13:38:53.753Z,99.90
2023-04-04T13:41:22.231Z,99.90
2023-04-04T13:43:51.311Z,99.90
2023-04-04T13:46:19.850Z,99.90
2023-04-04T13:48:48.465Z,99.90
2023-04-04T13:51:16.831Z,99.90
2023-04-04T13:53:46.128Z,99.90
2023-04-04T13:56:18.371Z,99.90
2023-04-04T13:58:47.908Z,99.90
2023-04-04T14:01:16.901Z,99.90
2023-04-04T14:03:45.432Z,99.90
2023-04-04T14:06:13.889Z,99.90
2023-04-04T14:08:42.404Z,99.90
2023-04-04T14:11:10.827Z,99.90
2023-04-04T14:13:39.253Z,99.90
2023-04-04T14:16:09.485Z,99.90
2023-04-04T14:18:37.925Z,99.90
2023-04-04T14:21:07.100Z,99.90
2023-04-04T14:23:35.546Z,99.90
2023-04-04T14:26:05.105Z,99.90
2023-04-04T14:28:33.671Z,99.90
2023-04-04T14:31:02.385Z,99.90
2023-04-04T14:33:30.901Z,99.90
2023-04-04T14:35:59.312Z,99.90
2023-04-04T14:38:34.708Z,99.90
2023-04-04T14:41:03.146Z,99.90
2023-04-04T14:43:31.767Z,99.90
2023-04-04T14:46:00.166Z,99.90
2023-04-04T14:48:28.635Z,99.90
2023-04-04T14:50:57.143Z,99.90
2023-04-04T14:53:25.735Z,99.90
2023-04-04T14:55:54.160Z,99.90
2023-04-04T14:58:22.877Z,99.90
2023-04-04T15:00:51.339Z,99.90
2023-04-04T15:03:19.839Z,99.90
2023-04-04T15:05:49.324Z,99.90
2023-04-04T15:08:17.794Z,99.90
2023-04-04T15:10:46.177Z,99.90
2023-04-04T15:13:14.837Z,99.90
2023-04-04T15:15:43.375Z,99.90
2023-04-04T15:18:11.912Z,99.90
2023-04-04T15:20:40.591Z,99.90
2023-04-04T15:23:09.414Z,99.90
2023-04-04T15:25:38.041Z,99.90
2023-04-04T15:28:06.667Z,99.90
2023-04-04T15:30:35.349Z,99.90
2023-04-04T15:33:03.825Z,99.90
2023-04-04T15:35:32.364Z,99.90
2023-04-04T15:38:00.794Z,99.90
2023-04-04T15:40:29.759Z,99.90
2023-04-04T15:42:58.674Z,99.90
2023-04-04T15:45:28.240Z,99.90
2023-04-04T15:47:56.932Z,99.90
2023-04-04T15:50:25.671Z,99.90
2023-04-04T15:52:54.373Z,99.90
2023-04-04T15:55:23.381Z,99.90
2023-04-04T15:57:52.218Z,96.10
2023-04-04T16:00:21.001Z,86.50
2023-04-04T16:02:50.280Z,46.70
2023-04-04T16:05:19.670Z,28.20
2023-04-04T16:07:48.642Z,37.00
2023-04-04T16:10:18.031Z,24.30
2023-04-04T16:12:47.464Z,16.50
2023-04-04T16:15:17.078Z,22.30
2023-04-04T16:17:45.762Z,12.40
2023-04-04T16:20:15.086Z,22.70
2023-04-04T16:22:44.258Z,23.60
2023-04-04T16:25:13.578Z,15.60
2023-04-04T16:27:43.278Z,14.70
2023-04-04T16:30:13.331Z,1.00
2023-04-04T16:32:47.702Z,15.50
2023-04-04T16:35:17.529Z,12.00
2023-04-04T16:37:46.961Z,24.80
2023-04-04T16:40:16.873Z,15.70
2023-04-04T16:42:46.308Z,1.00
2023-04-04T16:45:15.254Z,1.00
2023-04-04T16:47:44.730Z,1.00
2023-04-04T16:50:13.604Z,1.00
2023-04-04T16:52:42.237Z,1.00
2023-04-04T16:55:11.271Z,8.20
2023-04-04T16:57:41.219Z,1.00
2023-04-04T17:00:13.345Z,1.00
2023-04-04T17:02:48.440Z,2.90
2023-04-04T17:05:17.459Z,3.20
2023-04-04T17:07:46.183Z,8.00
2023-04-04T17:10:15.471Z,1.00
2023-04-04T17:12:45.060Z,1.00
2023-04-04T17:15:16.572Z,1.00
2023-04-04T17:17:47.176Z,1.00
2023-04-04T17:20:18.770Z,1.00
2023-04-04T17:22:49.250Z,1.00
2023-04-04T17:25:19.488Z,1.00
2023-04-04T17:27:48.273Z,1.00
2023-04-04T17:30:17.545Z,1.00
2023-04-04T17:32:47.342Z,1.00
2023-04-04T17:35:16.838Z,1.00
2023-04-04T17:37:46.074Z,1.00
2023-04-04T17:40:16.605Z,1.00
2023-04-04T17:42:45.539Z,1.00
2023-04-04T17:45:14.317Z,1.00
2023-04-04T17:47:43.051Z,1.00
2023-04-04T17:50:12.862Z,1.00
2023-04-04T17:52:41.776Z,1.00
2023-04-04T17:55:11.300Z,1.00
2023-04-04T17:57:41.003Z,1.00
2023-04-04T18:00:11.034Z,1.00
2023-04-04T18:02:40.598Z,1.00
2023-04-04T18:05:11.782Z,1.00
2023-04-04T18:07:41.227Z,1.00
2023-04-04T18:10:10.339Z,1.00
2023-04-04T18:12:40.171Z,1.00
2023-04-04T18:15:09.734Z,1.00
2023-04-04T18:17:39.875Z,1.00
2023-04-04T18:20:12.628Z,1.00
2023-04-04T18:22:44.190Z,1.00
2023-04-04T18:25:14.384Z,1.00
2023-04-04T18:27:43.266Z,1.00
2023-04-04T18:30:12.495Z,1.00
2023-04-04T18:32:42.078Z,1.00
2023-04-04T18:35:11.414Z,1.00
2023-04-04T18:37:40.624Z,1.00
2023-04-04T18:40:10.406Z,1.00
2023-04-04T18:42:41.088Z,1.00
2023-04-04T18:45:10.642Z,1.00
2023-04-04T18:47:41.536Z,1.00
2023-04-04T18:50:10.903Z,1.00
2023-04-04T18:52:40.191Z,1.00
2023-04-04T18:55:10.649Z,1.00
2023-04-04T18:57:40.245Z,1.00
2023-04-04T19:00:13.838Z,1.00
2023-04-04T19:02:43.251Z,1.00
2023-04-04T19:05:14.100Z,1.00
2023-04-04T19:07:44.588Z,1.00
2023-04-04T19:10:13.822Z,1.00
2023-04-04T19:12:44.201Z,1.00
2023-04-04T19:15:14.223Z,1.00
2023-04-04T19:17:44.548Z,1.00
2023-04-04T19:20:16.675Z,1.00
2023-04-04T19:22:45.454Z,1.00
2023-04-04T19:25:14.747Z,1.00
2023-04-04T19:27:43.915Z,1.00
2023-04-04T19:30:51.088Z,1.00
2023-04-04T19:33:23.253Z,1.00
2023-04-04T19:36:12.614Z,1.00
2023-04-04T19:38:46.167Z,1.00
2023-04-04T19:41:18.043Z,1.00
2023-04-04T19:43:48.520Z,1.00
2023-04-04T19:46:31.577Z,1.00
2023-04-04T19:49:10.300Z,1.00
2023-04-04T19:51:56.114Z,1.00
2023-04-04T19:54:44.577Z,1.00
2023-04-04T19:57:21.794Z,1.00
2023-04-04T20:00:09.786Z,1.00
2023-04-04T20:02:58.656Z,1.00
2023-04-04T20:05:36.040Z,1.00
2023-04-04T20:08:07.488Z,1.00
2023-04-04T20:10:42.011Z,1.00
2023-04-04T20:13:11.341Z,1.00
2023-04-04T20:15:45.709Z,1.00
2023-04-04T20:18:25.466Z,1.00
2023-04-04T20:21:01.277Z,1.00
2023-04-04T20:23:32.596Z,1.00
2023-04-04T20:26:07.402Z,1.00
2023-04-04T20:28:37.252Z,1.00
2023-04-04T20:31:12.405Z,1.00
2023-04-04T20:33:42.089Z,1.00
2023-04-04T20:36:14.586Z,1.00
2023-04-04T20:38:43.550Z,1.00
2023-04-04T20:41:20.534Z,1.00
2023-04-04T20:44:00.855Z,1.00
2023-04-04T20:46:32.307Z,1.00
2023-04-04T20:49:01.403Z,1.00
2023-04-04T20:51:31.850Z,1.00
2023-04-04T20:54:04.726Z,1.00
2023-04-04T20:56:42.205Z,1.00
2023-04-04T20:59:49.218Z,1.00
2023-04-04T21:02:20.715Z,1.00
2023-04-04T21:04:52.359Z,1.00
2023-04-04T21:07:45.156Z,1.00
2023-04-04T21:10:24.617Z,1.00
2023-04-04T21:12:53.838Z,1.00
2023-04-04T21:15:36.374Z,1.00
2023-04-04T21:18:10.987Z,1.00
2023-04-04T21:20:48.366Z,1.00
2023-04-04T21:23:25.951Z,1.00
2023-04-04T21:25:59.603Z,1.00
2023-04-04T21:28:33.798Z,1.00
2023-04-04T21:31:03.462Z,1.00
2023-04-04T21:33:31.829Z,1.00
2023-04-04T21:36:00.206Z,1.00
2023-04-04T21:38:36.282Z,1.00
2023-04-04T21:41:17.553Z,1.00
2023-04-04T21:43:45.906Z,1.00
2023-04-04T21:46:14.283Z,1.00
2023-04-04T21:48:43.103Z,1.00
2023-04-04T21:51:11.579Z,1.00
2023-04-04T21:53:39.901Z,1.00
2023-04-04T21:56:08.421Z,1.00
2023-04-04T21:58:37.015Z,1.00
2023-04-04T22:01:05.387Z,1.00
2023-04-04T22:03:33.744Z,1.00
2023-04-04T22:06:02.209Z,1.00
2023-04-04T22:08:30.537Z,1.00
2023-04-04T22:11:02.017Z,1.00
2023-04-04T22:13:34.071Z,1.00
2023-04-04T22:16:05.302Z,1.00
2023-04-04T22:18:36.449Z,1.00
2023-04-04T22:21:05.178Z,1.00
2023-04-04T22:23:37.198Z,1.00
2023-04-04T22:26:18.101Z,1.00
2023-04-04T22:28:46.632Z,1.00
2023-04-04T22:31:15.292Z,1.00
2023-04-04T22:33:44.486Z,1.00
2023-04-04T22:36:12.884Z,1.00
2023-04-04T22:38:41.218Z,1.00
2023-04-04T22:41:09.563Z,1.00
2023-04-04T22:43:37.934Z,1.00
2023-04-04T22:46:06.409Z,1.00
2023-04-04T22:48:42.124Z,1.00
2023-04-04T22:51:10.467Z,1.00
2023-04-04T22:53:38.765Z,1.00
2023-04-04T22:56:07.909Z,1.00
2023-04-04T22:58:36.345Z,1.00
2023-04-04T23:01:04.683Z,1.00
2023-04-04T23:03:33.467Z,1.00
2023-04-04T23:06:02.043Z,1.00
2023-04-04T23:08:30.413Z,1.00
2023-04-04T23:10:58.823Z,1.00
2023-04-04T23:13:27.339Z,1.00
2023-04-04T23:15:55.652Z,1.00
2023-04-04T23:18:25.121Z,1.00
2023-04-04T23:20:53.817Z,1.00
2023-04-04T23:23:22.735Z,1.00
2023-04-04T23:25:51.294Z,1.00
2023-04-04T23:28:19.645Z,1.00
2023-04-04T23:31:21.216Z,1.00
2023-04-04T23:33:50.117Z,1.00
2023-04-04T23:36:18.648Z,1.00
2023-04-04T23:38:47.051Z,1.00
2023-04-04T23:41:15.386Z,1.00
2023-04-04T23:43:44.042Z,1.00
2023-04-04T23:46:15.185Z,1.00
2023-04-04T23:48:43.658Z,1.00
2023-04-04T23:51:12.060Z,1.00
2023-04-04T23:53:40.738Z,1.00
2023-04-04T23:56:09.303Z,1.00
2023-04-04T23:58:39.540Z,1.00
